Time;durP1;ratioP1;P1;durP2;ratioP2;P2;SDS_P1;SDS_P2;PMS_P1;PMS_P2;Temp;Humidity;BMP_temperature;BMP_pressure;BME280_temperature;BME280_humidity;BME280_pressure;Samples;Min_cycle;Max_cycle;Signal;HPM_P1;HPM_P2
2023/11/03 06:00:11;;;;;;;10.05;2.80;;;;;;;;;;6056610;23;20418;31
2023/11/03 06:02:37;;;;;;;5.50;3.73;;;;;;;;;;4926617;29;20532;-72
2023/11/03 06:05:03;;;;;;;10.33;3.60;;;;;;;;;;4924158;29;20430;-72
2023/11/03 06:07:29;;;;;;;5.70;3.40;;;;;;;;;;4924456;29;20995;-72
2023/11/03 06:09:56;;;;;;;9.33;4.10;;;;;;;;;;4924538;29;20531;-72
2023/11/03 06:12:22;;;;;;;13.50;4.13;;;;;;;;;;4914604;29;20578;-70
2023/11/03 06:14:48;;;;;;;9.17;3.50;;;;;;;;;;4930041;29;20437;-72
2023/11/03 06:17:14;;;;;;;12.03;4.20;;;;;;;;;;4935556;29;20420;-73
2023/11/03 06:19:40;;;;;;;13.00;4.73;;;;;;;;;;4935352;29;20414;-72
2023/11/03 06:22:06;;;;;;;15.90;3.63;;;;;;;;;;4934664;29;20576;-71
2023/11/03 06:24:32;;;;;;;5.90;3.17;;;;;;;;;;4934967;29;20417;-72
2023/11/03 06:26:59;;;;;;;7.90;2.10;;;;;;;;;;4935243;29;20425;-72
2023/11/03 06:29:28;;;;;;;3.63;2.73;;;;;;;;;;4935266;29;20469;-71
2023/11/03 06:31:54;;;;;;;10.47;3.33;;;;;;;;;;4934134;29;20442;-72
2023/11/03 06:34:20;;;;;;;3.73;2.17;;;;;;;;;;4916721;29;20468;-73
2023/11/03 06:36:46;;;;;;;7.37;3.07;;;;;;;;;;4921404;29;20853;-74
2023/11/03 06:39:12;;;;;;;4.63;2.10;;;;;;;;;;4914596;29;20460;-74
2023/11/03 06:41:38;;;;;;;5.03;2.03;;;;;;;;;;4913788;29;20586;-71
2023/11/03 06:44:05;;;;;;;7.47;2.53;;;;;;;;;;4911407;29;20501;-74
2023/11/03 06:46:31;;;;;;;6.60;1.90;;;;;;;;;;4918689;29;20433;-73
2023/11/03 06:48:57;;;;;;;3.47;2.00;;;;;;;;;;4915047;29;20547;-73
2023/11/03 06:51:24;;;;;;;3.97;1.90;;;;;;;;;;4898010;29;20458;-72
2023/11/03 06:53:50;;;;;;;5.60;1.90;;;;;;;;;;4911693;29;20437;-72
2023/11/03 06:56:15;;;;;;;5.40;1.67;;;;;;;;;;4918579;29;20450;-73
2023/11/03 06:58:41;;;;;;;2.40;1.70;;;;;;;;;;4921712;29;20932;-72
2023/11/03 07:01:08;;;;;;;3.00;1.73;;;;;;;;;;4914862;29;21100;-73
2023/11/03 07:03:34;;;;;;;4.93;1.93;;;;;;;;;;4918496;29;20533;-73
2023/11/03 07:06:04;;;;;;;3.73;1.83;;;;;;;;;;4917411;29;20816;-74
2023/11/03 07:08:30;;;;;;;4.20;2.00;;;;;;;;;;4919564;29;20512;-73
2023/11/03 07:10:58;;;;;;;4.33;1.87;;;;;;;;;;4915634;29;20453;-73
2023/11/03 07:13:24;;;;;;;4.43;1.70;;;;;;;;;;4917087;29;20432;-72
2023/11/03 07:15:50;;;;;;;9.47;2.30;;;;;;;;;;4916133;29;20516;-74
2023/11/03 07:18:16;;;;;;;5.73;2.10;;;;;;;;;;4920207;29;21021;-71
2023/11/03 07:20:43;;;;;;;3.80;1.47;;;;;;;;;;4920696;29;20462;-72
2023/11/03 07:23:09;;;;;;;12.10;1.70;;;;;;;;;;4921494;29;21081;-74
2023/11/03 07:25:35;;;;;;;4.40;1.90;;;;;;;;;;4917204;29;20932;-73
2023/11/03 07:28:01;;;;;;;4.43;2.37;;;;;;;;;;4927236;29;20437;-72
2023/11/03 07:30:28;;;;;;;5.53;2.10;;;;;;;;;;4921167;29;20466;-73
2023/11/03 07:32:54;;;;;;;2.10;1.53;;;;;;;;;;4915293;29;20449;-71
2023/11/03 07:35:20;;;;;;;3.53;1.67;;;;;;;;;;4922084;29;20583;-70
2023/11/03 07:37:46;;;;;;;10.70;2.33;;;;;;;;;;4918017;29;20897;-72
2023/11/03 07:40:14;;;;;;;5.23;1.70;;;;;;;;;;4916969;29;20437;-71
2023/11/03 07:42:40;;;;;;;7.57;1.90;;;;;;;;;;4921685;29;20518;-73
2023/11/03 07:45:07;;;;;;;5.03;1.93;;;;;;;;;;4916553;29;20498;-71
2023/11/03 07:47:34;;;;;;;8.23;2.23;;;;;;;;;;4919526;29;20812;-74
2023/11/03 07:50:00;;;;;;;4.30;1.90;;;;;;;;;;4918654;29;20560;-73
2023/11/03 07:52:26;;;;;;;5.33;2.00;;;;;;;;;;4919159;29;20561;-73
2023/11/03 07:54:52;;;;;;;6.93;2.20;;;;;;;;;;4912095;29;20445;-71
2023/11/03 07:57:18;;;;;;;6.53;1.83;;;;;;;;;;4928802;29;20440;-72
2023/11/03 07:59:44;;;;;;;4.80;1.73;;;;;;;;;;4933754;29;20433;-72
2023/11/03 08:02:10;;;;;;;6.00;2.03;;;;;;;;;;4933171;29;20819;-73
2023/11/03 08:04:36;;;;;;;5.20;1.93;;;;;;;;;;4933610;29;20432;-73
2023/11/03 08:07:02;;;;;;;4.93;2.00;;;;;;;;;;4933971;29;20647;-73
2023/11/03 08:09:29;;;;;;;6.53;1.77;;;;;;;;;;4933892;29;20465;-73
2023/11/03 08:11:55;;;;;;;7.40;1.80;;;;;;;;;;4940809;29;20573;-73
2023/11/03 08:14:21;;;;;;;2.90;1.70;;;;;;;;;;4929553;29;20520;-73
2023/11/03 08:16:48;;;;;;;4.87;2.33;;;;;;;;;;4916142;29;20437;-72
2023/11/03 08:19:14;;;;;;;5.87;1.93;;;;;;;;;;4919111;29;20444;-72
2023/11/03 08:21:43;;;;;;;4.77;2.27;;;;;;;;;;4913313;29;20453;-73
2023/11/03 08:24:11;;;;;;;5.37;1.70;;;;;;;;;;4917866;29;20495;-72
2023/11/03 08:26:37;;;;;;;12.87;2.70;;;;;;;;;;4916815;29;20484;-72
2023/11/03 08:29:03;;;;;;;8.93;2.60;;;;;;;;;;4919356;29;20469;-72
2023/11/03 08:31:29;;;;;;;4.30;2.37;;;;;;;;;;4916630;29;20858;-71
2023/11/03 08:33:56;;;;;;;5.83;2.27;;;;;;;;;;4916478;29;20467;-70
2023/11/03 08:36:22;;;;;;;4.90;2.00;;;;;;;;;;4919493;29;20481;-73
2023/11/03 08:38:51;;;;;;;5.23;1.90;;;;;;;;;;4918551;29;20446;-72
2023/11/03 08:41:19;;;;;;;4.00;1.73;;;;;;;;;;4921289;29;20457;-71
2023/11/03 08:43:45;;;;;;;8.70;2.03;;;;;;;;;;4922494;29;20449;-73
2023/11/03 08:46:12;;;;;;;6.17;1.77;;;;;;;;;;4921202;29;20448;-73
2023/11/03 08:48:39;;;;;;;11.83;2.23;;;;;;;;;;4924955;29;22640;-72
2023/11/03 08:51:06;;;;;;;4.50;2.00;;;;;;;;;;4918841;29;20460;-73
2023/11/03 08:53:32;;;;;;;4.43;2.00;;;;;;;;;;4921041;29;20442;-72
2023/11/03 08:55:58;;;;;;;8.97;2.10;;;;;;;;;;4914583;29;20803;-75
2023/11/03 08:58:24;;;;;;;10.43;2.60;;;;;;;;;;4920907;29;20588;-74
2023/11/03 09:00:54;;;;;;;4.33;2.13;;;;;;;;;;4920348;29;21198;-71
2023/11/03 09:03:20;;;;;;;8.20;2.70;;;;;;;;;;4917044;29;20441;-73
2023/11/03 09:05:46;;;;;;;28.43;3.03;;;;;;;;;;4920871;29;20500;-72
2023/11/03 09:08:13;;;;;;;9.60;1.80;;;;;;;;;;4917144;29;20595;-72
2023/11/03 09:10:39;;;;;;;3.67;1.70;;;;;;;;;;4917687;29;20938;-73
2023/11/03 09:13:06;;;;;;;9.83;2.07;;;;;;;;;;4918262;29;21011;-70
2023/11/03 09:15:32;;;;;;;7.43;2.30;;;;;;;;;;4914811;29;20452;-71
2023/11/03 09:17:58;;;;;;;7.30;1.60;;;;;;;;;;4916851;29;22062;-74
2023/11/03 09:20:24;;;;;;;2.53;1.40;;;;;;;;;;4921227;29;20437;-74
2023/11/03 09:22:50;;;;;;;3.33;1.90;;;;;;;;;;4921292;29;20456;-74
2023/11/03 09:25:17;;;;;;;2.03;1.60;;;;;;;;;;4919092;29;20473;-72
2023/11/03 09:27:43;;;;;;;3.60;1.70;;;;;;;;;;4916386;29;20452;-71
2023/11/03 09:30:12;;;;;;;9.90;2.30;;;;;;;;;;4916236;29;20536;-73
2023/11/03 09:32:38;;;;;;;3.00;1.90;;;;;;;;;;4916844;29;20532;-73
2023/11/03 09:35:05;;;;;;;7.37;1.83;;;;;;;;;;4915374;29;20426;-73
2023/11/03 09:37:31;;;;;;;3.10;1.60;;;;;;;;;;4921420;29;20515;-73
2023/11/03 09:39:57;;;;;;;6.10;1.80;;;;;;;;;;4918950;29;20548;-72
2023/11/03 09:42:24;;;;;;;2.70;1.57;;;;;;;;;;4917834;29;22542;-73
2023/11/03 09:44:50;;;;;;;3.07;1.80;;;;;;;;;;4926003;29;20442;-72
2023/11/03 09:47:16;;;;;;;4.70;1.70;;;;;;;;;;4933746;29;20461;-71
2023/11/03 09:49:43;;;;;;;4.97;1.70;;;;;;;;;;4935584;29;20568;-72
2023/11/03 09:52:12;;;;;;;4.70;2.00;;;;;;;;;;4929794;29;20460;-72
2023/11/03 09:54:41;;;;;;;5.80;2.00;;;;;;;;;;4920019;29;20528;-73
2023/11/03 09:57:08;;;;;;;7.93;2.13;;;;;;;;;;4918616;29;21061;-73
2023/11/03 09:59:34;;;;;;;11.97;2.10;;;;;;;;;;4917280;29;20441;-73
2023/11/03 10:02:05;;;;;;;5.60;1.80;;;;;;;;;;4916755;29;20611;-73
2023/11/03 10:04:34;;;;;;;7.63;2.03;;;;;;;;;;4918170;29;20466;-71
2023/11/03 10:07:00;;;;;;;3.27;1.40;;;;;;;;;;4918134;29;20463;-72
2023/11/03 10:09:28;;;;;;;1.80;1.50;;;;;;;;;;4920119;29;20484;-73
2023/11/03 10:11:54;;;;;;;2.17;1.47;;;;;;;;;;4916418;29;20454;-74
2023/11/03 10:14:20;;;;;;;2.50;1.40;;;;;;;;;;4918893;29;20922;-74
2023/11/03 10:16:48;;;;;;;3.53;1.60;;;;;;;;;;4913016;29;20441;-71
2023/11/03 10:19:14;;;;;;;3.50;1.70;;;;;;;;;;4916986;29;21052;-71
2023/11/03 10:21:40;;;;;;;3.40;1.33;;;;;;;;;;4916086;29;20457;-71
2023/11/03 10:24:06;;;;;;;3.80;1.10;;;;;;;;;;4917968;29;20750;-73
2023/11/03 10:26:33;;;;;;;4.40;1.70;;;;;;;;;;4918032;29;20526;-73
2023/11/03 10:28:59;;;;;;;3.40;1.23;;;;;;;;;;4914798;29;20505;-72
2023/11/03 10:31:26;;;;;;;2.67;1.23;;;;;;;;;;4915159;29;20873;-72
2023/11/03 10:33:53;;;;;;;2.17;1.60;;;;;;;;;;4923635;29;21099;-74
2023/11/03 10:36:19;;;;;;;2.33;1.30;;;;;;;;;;4916331;29;20535;-72
2023/11/03 10:38:45;;;;;;;3.30;1.50;;;;;;;;;;4914193;29;20866;-72
2023/11/03 10:41:12;;;;;;;3.23;1.70;;;;;;;;;;4913365;29;20481;-70
2023/11/03 10:43:45;;;;;;;2.10;1.13;;;;;;;;;;4913374;29;20449;-71
2023/11/03 10:46:18;;;;;;;1.90;1.53;;;;;;;;;;4917648;29;20522;-71
2023/11/03 10:48:45;;;;;;;2.27;1.60;;;;;;;;;;4914139;29;20483;-71
2023/11/03 10:51:21;;;;;;;2.60;1.87;;;;;;;;;;4913982;29;20608;-71
2023/11/03 10:53:51;;;;;;;3.13;1.70;;;;;;;;;;4911677;29;20917;-72
2023/11/03 10:56:17;;;;;;;1.30;1.20;;;;;;;;;;4915088;29;20469;-71
2023/11/03 10:58:43;;;;;;;2.53;1.20;;;;;;;;;;4912857;29;20500;-71
2023/11/03 11:01:09;;;;;;;2.77;1.50;;;;;;;;;;4929184;29;20536;-71
2023/11/03 11:03:35;;;;;;;10.30;1.80;;;;;;;;;;4916617;29;20828;-71
2023/11/03 11:06:01;;;;;;;1.53;1.30;;;;;;;;;;4912747;29;20520;-71
2023/11/03 11:08:28;;;;;;;2.10;1.63;;;;;;;;;;4917593;29;20477;-71
2023/11/03 11:10:54;;;;;;;2.13;1.10;;;;;;;;;;4924648;29;20539;-71
2023/11/03 11:13:21;;;;;;;2.13;1.80;;;;;;;;;;4934707;29;20501;-71
2023/11/03 11:15:56;;;;;;;4.73;1.73;;;;;;;;;;4922706;29;20433;-71
2023/11/03 11:18:28;;;;;;;5.47;1.93;;;;;;;;;;4917825;29;20433;-72
2023/11/03 11:20:55;;;;;;;7.33;5.00;;;;;;;;;;4917327;29;20556;-71
2023/11/03 11:23:24;;;;;;;2.57;1.73;;;;;;;;;;4920565;29;20433;-71
2023/11/03 11:25:50;;;;;;;4.30;2.10;;;;;;;;;;4923450;29;20980;-71
2023/11/03 11:28:35;;;;;;;1.53;1.10;;;;;;;;;;4914104;29;20477;-71
2023/11/03 11:31:21;;;;;;;1.80;1.23;;;;;;;;;;4915226;29;20461;-71
2023/11/03 11:34:05;;;;;;;2.37;1.17;;;;;;;;;;4917140;29;20475;-70
2023/11/03 11:36:33;;;;;;;3.67;2.23;;;;;;;;;;4924695;29;20960;-70
2023/11/03 11:39:13;;;;;;;2.50;1.77;;;;;;;;;;4920610;29;20484;-70
2023/11/03 11:41:44;;;;;;;2.30;1.40;;;;;;;;;;4919841;29;20465;-71
2023/11/03 11:44:10;;;;;;;5.00;1.80;;;;;;;;;;4921607;29;20462;-71
2023/11/03 11:46:39;;;;;;;4.30;1.50;;;;;;;;;;4919025;29;20485;-71
2023/11/03 11:49:07;;;;;;;3.60;1.47;;;;;;;;;;4923332;29;20469;-70
2023/11/03 11:51:33;;;;;;;2.77;1.50;;;;;;;;;;4917176;29;20457;-70
2023/11/03 11:54:01;;;;;;;3.60;2.30;;;;;;;;;;4919463;29;20958;-70
2023/11/03 11:56:27;;;;;;;1.07;1.00;;;;;;;;;;4916644;29;20430;-71
2023/11/03 11:58:54;;;;;;;1.20;1.13;;;;;;;;;;4916258;29;21220;-71
2023/11/03 12:01:21;;;;;;;2.43;0.97;;;;;;;;;;4921369;29;20572;-70
2023/11/03 12:03:47;;;;;;;0.90;0.90;;;;;;;;;;4917338;29;20435;-70
2023/11/03 12:06:14;;;;;;;1.97;0.80;;;;;;;;;;4920065;29;20512;-70
2023/11/03 12:08:40;;;;;;;1.13;1.07;;;;;;;;;;4920153;29;20480;-70
2023/11/03 12:11:06;;;;;;;1.07;1.00;;;;;;;;;;4918898;29;20460;-70
2023/11/03 12:13:35;;;;;;;2.80;1.43;;;;;;;;;;4950652;23;20946;-72
2023/11/03 12:16:01;;;;;;;1.20;1.00;;;;;;;;;;4907986;29;20515;-72
2023/11/03 12:18:27;;;;;;;2.20;1.30;;;;;;;;;;4921317;29;20430;-72
2023/11/03 12:21:03;;;;;;;1.07;0.97;;;;;;;;;;4910878;29;20949;-73
2023/11/03 12:23:29;;;;;;;2.80;0.90;;;;;;;;;;4921588;29;20453;-72
2023/11/03 12:26:01;;;;;;;3.27;2.30;;;;;;;;;;4921862;29;20461;-73
2023/11/03 12:28:27;;;;;;;2.73;1.00;;;;;;;;;;4917401;29;20481;-72
2023/11/03 12:30:55;;;;;;;1.17;1.00;;;;;;;;;;4919741;29;20428;-72
2023/11/03 12:33:21;;;;;;;2.57;1.73;;;;;;;;;;4921864;29;20965;-73
2023/11/03 12:35:48;;;;;;;0.80;0.80;;;;;;;;;;4922328;29;20444;-73
2023/11/03 12:38:17;;;;;;;0.90;0.80;;;;;;;;;;4909264;29;20448;-73
2023/11/03 12:40:44;;;;;;;1.43;1.00;;;;;;;;;;4919027;29;20442;-73
2023/11/03 12:43:13;;;;;;;3.17;1.20;;;;;;;;;;4923790;29;20448;-73
2023/11/03 12:45:39;;;;;;;1.70;0.90;;;;;;;;;;4922343;29;20422;-72
2023/11/03 12:48:19;;;;;;;4.33;1.27;;;;;;;;;;4922280;29;20452;-73
2023/11/03 12:50:57;;;;;;;2.63;1.10;;;;;;;;;;4919528;29;20446;-73
2023/11/03 12:53:24;;;;;;;5.67;0.93;;;;;;;;;;4919599;29;20461;-70
2023/11/03 12:56:04;;;;;;;1.40;0.90;;;;;;;;;;4925698;29;20841;-73
2023/11/03 12:58:30;;;;;;;3.37;1.10;;;;;;;;;;4922062;29;20952;-71
2023/11/03 13:01:01;;;;;;;2.77;0.93;;;;;;;;;;4921850;29;20513;-70
2023/11/03 13:03:28;;;;;;;1.90;1.00;;;;;;;;;;4922249;29;20458;-70
2023/11/03 13:05:54;;;;;;;1.80;1.33;;;;;;;;;;4921080;29;20441;-70
2023/11/03 13:08:20;;;;;;;1.30;1.20;;;;;;;;;;4920022;29;20595;-70
2023/11/03 13:10:46;;;;;;;2.60;0.87;;;;;;;;;;4918442;29;20771;-70
2023/11/03 13:13:15;;;;;;;0.70;0.70;;;;;;;;;;4916613;29;20441;-70
2023/11/03 13:15:42;;;;;;;0.97;0.93;;;;;;;;;;4915796;29;20841;-70
2023/11/03 13:18:08;;;;;;;1.93;1.30;;;;;;;;;;4920411;29;20433;-70
2023/11/03 13:20:35;;;;;;;1.03;0.93;;;;;;;;;;4918101;29;20441;-70
2023/11/03 13:23:04;;;;;;;2.93;1.30;;;;;;;;;;4919079;29;20448;-71
2023/11/03 13:25:30;;;;;;;2.00;0.97;;;;;;;;;;4921717;29;20442;-71
2023/11/03 13:27:57;;;;;;;3.87;1.73;;;;;;;;;;4921109;29;20937;-71
2023/11/03 13:30:23;;;;;;;5.10;1.87;;;;;;;;;;4917168;29;20469;-71
2023/11/03 13:32:49;;;;;;;1.37;1.23;;;;;;;;;;4915695;29;20438;-71
2023/11/03 13:35:19;;;;;;;2.00;1.17;;;;;;;;;;4919293;29;20465;-71
2023/11/03 13:37:45;;;;;;;1.00;0.90;;;;;;;;;;4919418;29;20716;-71
2023/11/03 13:40:11;;;;;;;1.00;0.90;;;;;;;;;;4918150;29;20524;-71
2023/11/03 13:42:38;;;;;;;2.20;1.30;;;;;;;;;;4918741;29;20453;-71
2023/11/03 13:45:04;;;;;;;3.20;1.13;;;;;;;;;;4916848;29;20471;-71
2023/11/03 13:47:30;;;;;;;3.97;1.60;;;;;;;;;;4902122;29;20465;-71
2023/11/03 13:49:56;;;;;;;1.17;1.07;;;;;;;;;;4918341;29;20469;-71
2023/11/03 13:52:23;;;;;;;2.60;1.50;;;;;;;;;;4916950;29;20430;-70
2023/11/03 13:54:50;;;;;;;3.93;1.30;;;;;;;;;;4917717;29;20462;-72
2023/11/03 13:57:16;;;;;;;1.00;1.00;;;;;;;;;;4917487;29;20819;-72
2023/11/03 13:59:42;;;;;;;1.97;1.10;;;;;;;;;;4917418;29;20441;-72
2023/11/03 14:02:08;;;;;;;1.30;1.20;;;;;;;;;;4904456;29;20950;-70
2023/11/03 14:04:35;;;;;;;3.63;1.30;;;;;;;;;;4922223;29;20468;-70
2023/11/03 14:07:01;;;;;;;7.60;1.80;;;;;;;;;;4916906;29;20476;-71
2023/11/03 14:09:27;;;;;;;2.67;1.00;;;;;;;;;;4916819;29;20991;-71
2023/11/03 14:11:54;;;;;;;2.90;1.10;;;;;;;;;;4920774;29;20448;-73
2023/11/03 14:14:26;;;;;;;1.90;1.03;;;;;;;;;;4916663;29;20468;-72
2023/11/03 14:16:52;;;;;;;2.77;1.20;;;;;;;;;;4918770;29;20943;-72
2023/11/03 14:19:18;;;;;;;5.43;1.73;;;;;;;;;;4894015;29;20972;-72
2023/11/03 14:21:46;;;;;;;2.07;1.30;;;;;;;;;;4917014;29;20596;-72
2023/11/03 14:24:13;;;;;;;1.53;1.50;;;;;;;;;;4917168;29;20469;-71
2023/11/03 14:26:44;;;;;;;1.97;1.50;;;;;;;;;;4916519;29;20433;-69
2023/11/03 14:29:13;;;;;;;1.50;1.10;;;;;;;;;;4915268;29;20796;-71
2023/11/03 14:31:41;;;;;;;7.17;1.40;;;;;;;;;;4918895;29;20513;-73
2023/11/03 14:34:10;;;;;;;3.73;1.30;;;;;;;;;;4917507;29;20457;-73
2023/11/03 14:36:36;;;;;;;3.67;1.80;;;;;;;;;;4917428;29;20922;-74
2023/11/03 14:39:02;;;;;;;3.00;1.87;;;;;;;;;;4916992;29;20438;-70
2023/11/03 14:41:28;;;;;;;8.23;1.80;;;;;;;;;;4917857;29;20438;-72
2023/11/03 14:43:54;;;;;;;1.80;1.33;;;;;;;;;;4905089;29;20562;-71
2023/11/03 14:46:20;;;;;;;3.10;1.33;;;;;;;;;;4924105;29;21012;-69
2023/11/03 14:48:50;;;;;;;4.27;1.60;;;;;;;;;;4920162;29;20986;-69
2023/11/03 14:51:16;;;;;;;2.57;1.30;;;;;;;;;;4916024;29;20502;-70
2023/11/03 14:53:45;;;;;;;6.90;1.83;;;;;;;;;;4920214;29;21172;-70
2023/11/03 14:56:11;;;;;;;3.30;1.30;;;;;;;;;;4919911;29;20829;-69
2023/11/03 14:58:37;;;;;;;2.50;1.40;;;;;;;;;;4917728;29;20968;-70
2023/11/03 15:01:03;;;;;;;5.43;2.10;;;;;;;;;;4899113;29;20445;-69
2023/11/03 15:03:32;;;;;;;2.20;1.63;;;;;;;;;;4915448;29;20473;-71
2023/11/03 15:06:00;;;;;;;2.97;1.90;;;;;;;;;;4915653;29;20441;-69
2023/11/03 15:08:26;;;;;;;2.57;1.73;;;;;;;;;;4918860;29;20477;-69
2023/11/03 15:10:52;;;;;;;2.13;1.40;;;;;;;;;;4914411;29;20470;-70
2023/11/03 15:13:19;;;;;;;3.53;1.80;;;;;;;;;;4915034;29;20493;-70
2023/11/03 15:15:45;;;;;;;3.43;2.40;;;;;;;;;;4917896;29;20452;-70
2023/11/03 15:18:12;;;;;;;6.37;2.27;;;;;;;;;;4915738;29;20437;-70
2023/11/03 15:20:38;;;;;;;1.80;1.47;;;;;;;;;;4915702;29;20452;-69
2023/11/03 15:23:04;;;;;;;2.63;1.50;;;;;;;;;;4905326;29;20433;-72
2023/11/03 15:25:30;;;;;;;2.83;1.80;;;;;;;;;;4916640;29;20433;-69
2023/11/03 15:27:56;;;;;;;2.70;2.17;;;;;;;;;;4920803;29;20426;-69
2023/11/03 15:30:22;;;;;;;5.70;1.97;;;;;;;;;;4922046;29;22326;-70
2023/11/03 15:32:48;;;;;;;4.20;1.80;;;;;;;;;;4918101;29;20442;-70
2023/11/03 15:35:15;;;;;;;4.90;3.37;;;;;;;;;;4922529;29;20456;-70
2023/11/03 15:37:41;;;;;;;7.33;1.70;;;;;;;;;;4920980;29;20937;-69
2023/11/03 15:40:23;;;;;;;4.60;1.87;;;;;;;;;;4921726;29;20437;-69
2023/11/03 15:42:50;;;;;;;5.93;2.00;;;;;;;;;;4917340;29;20498;-68
2023/11/03 15:45:16;;;;;;;5.27;2.63;;;;;;;;;;4920637;29;20460;-68
2023/11/03 15:47:46;;;;;;;2.70;1.77;;;;;;;;;;4921017;29;20449;-69
2023/11/03 15:50:12;;;;;;;6.33;2.30;;;;;;;;;;4921785;29;20469;-69
2023/11/03 15:52:39;;;;;;;4.63;1.80;;;;;;;;;;4926655;29;20992;-70
2023/11/03 15:55:07;;;;;;;2.53;1.90;;;;;;;;;;4924257;29;21007;-69
2023/11/03 15:57:33;;;;;;;7.97;2.17;;;;;;;;;;4920790;29;20578;-69
2023/11/03 15:59:59;;;;;;;4.10;2.17;;;;;;;;;;4920936;29;21089;-68
2023/11/03 16:02:25;;;;;;;3.57;1.87;;;;;;;;;;4923031;29;20437;-68
2023/11/03 16:04:51;;;;;;;4.20;1.90;;;;;;;;;;4922109;29;20472;-69
2023/11/03 16:07:17;;;;;;;3.73;2.23;;;;;;;;;;4921882;29;20533;-69
2023/11/03 16:09:43;;;;;;;8.60;1.70;;;;;;;;;;4917938;29;20995;-70
2023/11/03 16:12:10;;;;;;;4.90;2.00;;;;;;;;;;4917586;29;20445;-69
2023/11/03 16:14:36;;;;;;;6.13;2.67;;;;;;;;;;4924418;29;20477;-70
2023/11/03 16:17:03;;;;;;;5.67;2.47;;;;;;;;;;4917935;29;20961;-70
2023/11/03 16:19:29;;;;;;;6.30;2.20;;;;;;;;;;4920522;29;20776;-69
2023/11/03 16:21:55;;;;;;;8.20;3.27;;;;;;;;;;4916661;29;20444;-69
2023/11/03 16:24:21;;;;;;;5.80;2.57;;;;;;;;;;4908116;29;20474;-69
2023/11/03 16:26:47;;;;;;;7.27;2.67;;;;;;;;;;4921274;29;20560;-69
2023/11/03 16:29:14;;;;;;;5.33;2.73;;;;;;;;;;4919693;29;20840;-71
2023/11/03 16:31:40;;;;;;;6.60;2.97;;;;;;;;;;4917817;29;20456;-70
2023/11/03 16:34:06;;;;;;;15.67;4.00;;;;;;;;;;4917889;29;20505;-70
2023/11/03 16:36:36;;;;;;;6.97;4.60;;;;;;;;;;4918158;29;20805;-70
2023/11/03 16:39:02;;;;;;;12.47;5.57;;;;;;;;;;4918275;29;21824;-69
2023/11/03 16:41:28;;;;;;;24.83;5.40;;;;;;;;;;4918197;29;20563;-71
2023/11/03 16:43:54;;;;;;;13.33;5.07;;;;;;;;;;4918661;29;20453;-72
2023/11/03 16:46:20;;;;;;;13.03;5.30;;;;;;;;;;4919698;29;20916;-69
2023/11/03 16:48:46;;;;;;;14.67;5.87;;;;;;;;;;4919249;29;20465;-71
2023/11/03 16:51:12;;;;;;;10.67;4.97;;;;;;;;;;4919482;29;20989;-71
2023/11/03 16:53:38;;;;;;;8.23;3.30;;;;;;;;;;4917693;29;20875;-70
2023/11/03 16:56:06;;;;;;;9.27;3.57;;;;;;;;;;4917868;29;20437;-71
2023/11/03 16:58:32;;;;;;;5.40;2.77;;;;;;;;;;4917110;29;20544;-71
2023/11/03 17:00:58;;;;;;;8.70;2.87;;;;;;;;;;4920597;29;20442;-71
2023/11/03 17:03:24;;;;;;;12.77;3.63;;;;;;;;;;4922773;29;20457;-69
2023/11/03 17:05:50;;;;;;;4.23;2.97;;;;;;;;;;4904228;29;20452;-71
2023/11/03 17:08:18;;;;;;;7.67;3.17;;;;;;;;;;4923562;29;20449;-71
2023/11/03 17:10:44;;;;;;;10.50;3.33;;;;;;;;;;4920895;29;20444;-71
2023/11/03 17:13:10;;;;;;;5.97;3.13;;;;;;;;;;4922707;29;20441;-70
2023/11/03 17:15:36;;;;;;;8.13;3.87;;;;;;;;;;4924537;29;20450;-70
2023/11/03 17:18:02;;;;;;;4.57;2.70;;;;;;;;;;4919497;29;20434;-70
2023/11/03 17:20:29;;;;;;;7.77;3.13;;;;;;;;;;4916214;29;20460;-69
2023/11/03 17:22:55;;;;;;;4.20;2.83;;;;;;;;;;4920860;29;20434;-72
2023/11/03 17:25:21;;;;;;;6.17;3.33;;;;;;;;;;4922093;29;20453;-73
2023/11/03 17:27:47;;;;;;;8.13;4.33;;;;;;;;;;4904097;29;20441;-73
2023/11/03 17:30:19;;;;;;;9.00;4.10;;;;;;;;;;4918650;29;20473;-73
2023/11/03 17:32:48;;;;;;;9.27;4.47;;;;;;;;;;4916441;29;20450;-73
2023/11/03 17:35:24;;;;;;;7.00;3.80;;;;;;;;;;4903808;29;20445;-73
2023/11/03 17:37:53;;;;;;;5.33;3.53;;;;;;;;;;4921448;29;20523;-73
2023/11/03 17:40:20;;;;;;;18.23;5.53;;;;;;;;;;4917968;29;20668;-73
2023/11/03 17:42:48;;;;;;;8.43;4.47;;;;;;;;;;4925027;29;20532;-74
2023/11/03 17:45:16;;;;;;;12.80;4.63;;;;;;;;;;4926473;29;20467;-72
2023/11/03 17:47:43;;;;;;;6.97;4.17;;;;;;;;;;4936371;29;20472;-73
2023/11/03 17:50:10;;;;;;;6.97;4.30;;;;;;;;;;4935745;29;20987;-73
2023/11/03 17:52:36;;;;;;;9.33;4.57;;;;;;;;;;4936524;29;20521;-73
2023/11/03 17:55:04;;;;;;;12.37;4.27;;;;;;;;;;4936303;29;20433;-74
2023/11/03 17:57:30;;;;;;;6.50;4.40;;;;;;;;;;4936198;29;20486;-74
2023/11/03 17:59:56;;;;;;;9.70;4.43;;;;;;;;;;4936328;29;20421;-74
2023/11/03 18:02:22;;;;;;;10.03;4.30;;;;;;;;;;4935860;29;20418;-73
2023/11/03 18:04:48;;;;;;;8.40;4.17;;;;;;;;;;4937833;29;20446;-72
2023/11/03 18:07:15;;;;;;;7.60;4.30;;;;;;;;;;4933073;29;20473;-73
2023/11/03 18:09:42;;;;;;;16.03;3.90;;;;;;;;;;4915840;29;20480;-73
2023/11/03 18:12:09;;;;;;;7.27;4.57;;;;;;;;;;4918766;29;20489;-73
2023/11/03 18:14:36;;;;;;;11.77;5.03;;;;;;;;;;4979249;23;20503;-73
2023/11/03 18:17:01;;;;;;;12.03;4.63;;;;;;;;;;4965676;28;20516;-71
2023/11/03 18:19:28;;;;;;;13.63;4.57;;;;;;;;;;4959074;28;20480;-73
2023/11/03 18:21:54;;;;;;;12.43;4.97;;;;;;;;;;4959477;28;20440;-72
2023/11/03 18:24:20;;;;;;;14.03;6.57;;;;;;;;;;4958949;28;20551;-72
2023/11/03 18:26:47;;;;;;;22.20;9.20;;;;;;;;;;4963108;28;20468;-72
2023/11/03 18:29:13;;;;;;;15.93;6.50;;;;;;;;;;4957323;28;20468;-73
2023/11/03 18:31:39;;;;;;;14.63;5.30;;;;;;;;;;4961026;28;20947;-71
2023/11/03 18:34:06;;;;;;;11.37;4.57;;;;;;;;;;4964758;28;20492;-72
2023/11/03 18:36:32;;;;;;;12.83;6.17;;;;;;;;;;4958858;28;20440;-71
2023/11/03 18:38:58;;;;;;;10.97;4.07;;;;;;;;;;4940074;28;20446;-75
2023/11/03 18:41:25;;;;;;;8.30;4.77;;;;;;;;;;4954537;28;20469;-72
2023/11/03 18:43:51;;;;;;;5.63;3.90;;;;;;;;;;4952807;28;20474;-72
2023/11/03 18:46:17;;;;;;;7.20;4.20;;;;;;;;;;4959410;28;20443;-72
2023/11/03 18:48:43;;;;;;;6.07;3.63;;;;;;;;;;4962513;28;20468;-72
2023/11/03 18:51:09;;;;;;;15.30;3.53;;;;;;;;;;4954224;29;20784;-72
2023/11/03 18:53:40;;;;;;;7.33;3.87;;;;;;;;;;4971842;28;20414;-72
2023/11/03 18:56:09;;;;;;;7.53;3.97;;;;;;;;;;4973578;28;20408;-72
2023/11/03 18:58:37;;;;;;;7.53;3.50;;;;;;;;;;4972954;28;20404;-73
2023/11/03 19:01:03;;;;;;;6.17;3.17;;;;;;;;;;4952852;28;21134;-73
2023/11/03 19:03:29;;;;;;;7.63;3.90;;;;;;;;;;4953069;28;20524;-73
2023/11/03 19:05:55;;;;;;;10.37;4.67;;;;;;;;;;4958778;28;20553;-72
2023/11/03 19:08:22;;;;;;;9.00;4.20;;;;;;;;;;4958369;28;20562;-70
2023/11/03 19:10:48;;;;;;;9.63;5.00;;;;;;;;;;4956642;28;20439;-74
2023/11/03 19:13:14;;;;;;;9.33;5.77;;;;;;;;;;4952436;28;20515;-72
2023/11/03 19:15:40;;;;;;;9.30;5.43;;;;;;;;;;4949852;28;20499;-72
2023/11/03 19:18:06;;;;;;;13.97;6.73;;;;;;;;;;4952432;28;20587;-72
2023/11/03 19:20:32;;;;;;;7.33;5.40;;;;;;;;;;4955031;28;20427;-72
2023/11/03 19:22:58;;;;;;;9.90;6.27;;;;;;;;;;4954770;28;20576;-72
2023/11/03 19:25:24;;;;;;;10.07;5.67;;;;;;;;;;4954480;28;20514;-72
2023/11/03 19:27:50;;;;;;;10.07;5.17;;;;;;;;;;4951775;28;20432;-72
2023/11/03 19:30:16;;;;;;;10.43;4.93;;;;;;;;;;4935911;28;20991;-73
2023/11/03 19:32:42;;;;;;;13.33;5.00;;;;;;;;;;4955118;28;21006;-72
2023/11/03 19:35:09;;;;;;;8.70;4.67;;;;;;;;;;4954173;28;20455;-73
2023/11/03 19:37:35;;;;;;;6.37;4.63;;;;;;;;;;4956497;28;20527;-72
2023/11/03 19:40:01;;;;;;;6.27;4.40;;;;;;;;;;4953825;28;20932;-75
2023/11/03 19:42:27;;;;;;;10.07;5.33;;;;;;;;;;4952133;28;20517;-71
2023/11/03 19:44:53;;;;;;;8.50;5.10;;;;;;;;;;4966166;28;20491;-73
2023/11/03 19:47:19;;;;;;;14.30;5.67;;;;;;;;;;4981758;28;20447;-77
2023/11/03 19:49:45;;;;;;;7.47;4.40;;;;;;;;;;4975625;28;20467;-75
2023/11/03 19:52:14;;;;;;;9.27;4.60;;;;;;;;;;4965125;28;20415;-75
2023/11/03 19:54:40;;;;;;;8.40;4.23;;;;;;;;;;4972418;28;20486;-73
2023/11/03 19:57:06;;;;;;;8.43;4.50;;;;;;;;;;4967643;28;20409;-73
2023/11/03 19:59:32;;;;;;;10.90;4.97;;;;;;;;;;4971071;28;20787;-74
2023/11/03 20:01:58;;;;;;;7.30;4.10;;;;;;;;;;4966696;28;20899;-73
2023/11/03 20:04:25;;;;;;;7.43;3.93;;;;;;;;;;4967081;28;21003;-73
2023/11/03 20:06:54;;;;;;;7.87;3.80;;;;;;;;;;4967163;28;20474;-74
2023/11/03 20:09:21;;;;;;;10.60;4.47;;;;;;;;;;4967612;28;20467;-74
2023/11/03 20:11:47;;;;;;;8.43;4.30;;;;;;;;;;4970158;28;20781;-74
2023/11/03 20:14:13;;;;;;;6.50;4.07;;;;;;;;;;4966012;28;20465;-75
2023/11/03 20:16:39;;;;;;;7.23;4.53;;;;;;;;;;4967835;28;20411;-74
2023/11/03 20:19:05;;;;;;;8.00;4.10;;;;;;;;;;4985871;28;20736;-74
2023/11/03 20:21:31;;;;;;;9.37;4.50;;;;;;;;;;5403304;23;20592;-69
2023/11/03 20:23:57;;;;;;;12.03;4.73;;;;;;;;;;4959384;28;20436;-70
2023/11/03 20:26:23;;;;;;;19.30;4.10;;;;;;;;;;4957052;28;20417;-69
2023/11/03 20:28:49;;;;;;;13.10;4.33;;;;;;;;;;4958360;28;20472;-69
2023/11/03 20:31:15;;;;;;;11.27;4.60;;;;;;;;;;4960952;28;20514;-70
2023/11/03 20:33:42;;;;;;;11.70;4.70;;;;;;;;;;4951413;28;20764;-70
2023/11/03 20:36:08;;;;;;;13.30;4.30;;;;;;;;;;4955780;28;20431;-69
2023/11/03 20:38:34;;;;;;;8.20;4.27;;;;;;;;;;4963084;28;20432;-69